createdAt,value
2022-08-27T00:00:32.683Z,98305.09
2022-08-27T00:02:59.971Z,98298.94
2022-08-27T00:05:26.839Z,98306.81
2022-08-27T00:07:54.049Z,98295.38
2022-08-27T00:10:24.866Z,98299.16
2022-08-27T00:12:52.256Z,98299.31
2022-08-27T00:15:20.089Z,98292.06
2022-08-27T00:17:48.540Z,98290.13
2022-08-27T00:20:17.781Z,98287.91
2022-08-27T00:22:44.885Z,98292.06
2022-08-27T00:25:12.781Z,98284.00
2022-08-27T00:27:40.135Z,98285.22
2022-08-27T00:30:09.904Z,98287.63
2022-08-27T00:32:36.827Z,98289.56
2022-08-27T00:35:04.005Z,98288.38
2022-08-27T00:37:31.192Z,98287.13
2022-08-27T00:39:58.072Z,98285.91
2022-08-27T00:42:25.093Z,98280.25
2022-08-27T00:44:52.211Z,98273.78
2022-08-27T00:47:24.082Z,98272.44
2022-08-27T00:49:58.412Z,98269.84
2022-08-27T00:52:46.771Z,98271.81
2022-08-27T00:55:18.790Z,98272.94
2022-08-27T00:57:55.327Z,98277.56
2022-08-27T01:00:22.613Z,98273.75
2022-08-27T01:02:50.238Z,98268.88
2022-08-27T01:05:20.597Z,98272.44
2022-08-27T01:07:51.692Z,98281.38
2022-08-27T01:10:21.595Z,98278.03
2022-08-27T01:12:53.559Z,98275.09
2022-08-27T01:15:22.659Z,98275.59
2022-08-27T01:17:50.455Z,98278.84
2022-08-27T01:20:25.870Z,98272.69
2022-08-27T01:23:17.003Z,98281.59
2022-08-27T01:25:44.880Z,98277.41
2022-08-27T01:28:13.629Z,98270.94
2022-08-27T01:30:41.260Z,98265.81
2022-08-27T01:33:19.664Z,98266.56
2022-08-27T01:35:49.521Z,98274.97
2022-08-27T01:38:30.123Z,98273.31
2022-08-27T01:40:59.453Z,98273.13
2022-08-27T01:43:27.709Z,98271.53
2022-08-27T01:45:54.777Z,98274.63
2022-08-27T01:48:22.471Z,98274.97
2022-08-27T01:50:49.746Z,98273.53
2022-08-27T01:53:22.651Z,98267.06
2022-08-27T01:55:51.643Z,98266.66
2022-08-27T01:58:21.043Z,98274.47
2022-08-27T02:00:56.384Z,98273.00
2022-08-27T02:03:24.691Z,98267.59
2022-08-27T02:05:52.273Z,98270.06
2022-08-27T02:08:19.739Z,98272.75
2022-08-27T02:10:48.800Z,98267.34
2022-08-27T02:13:16.976Z,98276.31
2022-08-27T02:15:45.511Z,98272.75
2022-08-27T02:18:13.852Z,98268.75
2022-08-27T02:20:42.050Z,98271.44
2022-08-27T02:23:09.243Z,98264.22
2022-08-27T02:25:36.895Z,98268.09
2022-08-27T02:28:06.225Z,98265.38
2022-08-27T02:30:34.296Z,98254.50
2022-08-27T02:33:02.636Z,98254.88
2022-08-27T02:35:31.567Z,98252.75
2022-08-27T02:37:59.664Z,98248.03
2022-08-27T02:40:26.936Z,98246.34
2022-08-27T02:42:53.921Z,98249.38
2022-08-27T02:45:21.518Z,98240.91
2022-08-27T02:47:48.604Z,98234.34
2022-08-27T02:50:16.292Z,98233.72
2022-08-27T02:52:45.347Z,98229.53
2022-08-27T02:55:14.480Z,98233.97
2022-08-27T02:57:44.847Z,98228.81
2022-08-27T03:00:15.105Z,98229.88
2022-08-27T03:02:42.352Z,98240.22
2022-08-27T03:05:10.910Z,98235.31
2022-08-27T03:07:37.857Z,98230.44
2022-08-27T03:10:06.065Z,98231.81
2022-08-27T03:12:34.247Z,98233.78
2022-08-27T03:15:01.118Z,98234.34
2022-08-27T03:17:46.738Z,98230.66
2022-08-27T03:20:13.599Z,98233.41
2022-08-27T03:22:40.860Z,98235.38
2022-08-27T03:25:09.017Z,98241.13
2022-08-27T03:27:35.959Z,98242.91
2022-08-27T03:30:10.646Z,98247.66
2022-08-27T03:32:38.070Z,98255.44
2022-08-27T03:35:05.513Z,98256.63
2022-08-27T03:37:32.298Z,98257.72
2022-08-27T03:39:59.283Z,98254.03
2022-08-27T03:42:26.309Z,98254.09
2022-08-27T03:44:53.431Z,98257.97
2022-08-27T03:47:20.263Z,98256.03
2022-08-27T03:49:47.080Z,98255.16
2022-08-27T03:52:14.911Z,98258.09
2022-08-27T03:54:41.672Z,98250.63
2022-08-27T03:57:08.765Z,98242.72
2022-08-27T03:59:35.978Z,98244.56
2022-08-27T04:02:02.902Z,98238.34
2022-08-27T04:04:31.029Z,98235.91
2022-08-27T04:06:59.061Z,98240.91
2022-08-27T04:09:26.879Z,98239.03
2022-08-27T04:11:53.826Z,98235.13
2022-08-27T04:14:27.094Z,98231.06
2022-08-27T04:16:56.567Z,98235.72
2022-08-27T04:19:28.093Z,98247.28
2022-08-27T04:22:06.730Z,98243.63
2022-08-27T04:24:35.777Z,98240.84
2022-08-27T04:27:04.116Z,98242.38
2022-08-27T04:29:32.490Z,98249.31
2022-08-27T04:31:59.292Z,98245.75
2022-08-27T04:34:26.466Z,98240.59
2022-08-27T04:36:56.686Z,98243.63
2022-08-27T04:39:24.750Z,98245.06
2022-08-27T04:41:53.025Z,98239.91
2022-08-27T04:44:19.857Z,98233.75
2022-08-27T04:46:49.283Z,98242.47
2022-08-27T04:49:17.377Z,98230.63
2022-08-27T04:51:44.133Z,98226.75
2022-08-27T04:54:11.191Z,98233.88
2022-08-27T04:56:39.175Z,98232.22
2022-08-27T04:59:09.174Z,98234.69
2022-08-27T05:01:38.156Z,98231.44
2022-08-27T05:04:05.411Z,98237.22
2022-08-27T05:06:33.375Z,98232.69
2022-08-27T05:09:00.139Z,98243.47
2022-08-27T05:11:32.142Z,98251.47
2022-08-27T05:13:59.295Z,98241.41
2022-08-27T05:16:26.056Z,98237.63
2022-08-27T05:18:53.650Z,98241.81
2022-08-27T05:21:23.667Z,98239.75
2022-08-27T05:23:51.836Z,98239.41
2022-08-27T05:26:18.993Z,98238.53
2022-08-27T05:28:45.778Z,98234.22
2022-08-27T05:31:14.420Z,98239.75
2022-08-27T05:33:42.759Z,98229.91
2022-08-27T05:36:20.705Z,98230.56
2022-08-27T05:38:51.484Z,98236.81
2022-08-27T05:41:20.904Z,98241.56
2022-08-27T05:43:50.387Z,98239.41
2022-08-27T05:46:20.454Z,98240.50
2022-08-27T05:48:48.287Z,98235.06
2022-08-27T05:51:25.246Z,98234.84
2022-08-27T05:53:56.444Z,98239.03
2022-08-27T05:56:26.190Z,98235.47
2022-08-27T05:59:11.665Z,98240.56
2022-08-27T06:01:42.246Z,98242.16
2022-08-27T06:04:09.470Z,98239.59
2022-08-27T06:06:38.676Z,98247.81
2022-08-27T06:09:06.950Z,98250.22
2022-08-27T06:11:34.937Z,98244.53
2022-08-27T06:14:01.790Z,98243.50
2022-08-27T06:16:28.693Z,98237.09
2022-08-27T06:18:57.348Z,98243.50
2022-08-27T06:21:25.097Z,98243.84
2022-08-27T06:23:54.031Z,98245.78
2022-08-27T06:26:23.106Z,98244.69
2022-08-27T06:28:50.348Z,98250.34
2022-08-27T06:31:20.528Z,98250.97
2022-08-27T06:33:47.962Z,98255.50
2022-08-27T06:36:17.544Z,98258.34
2022-08-27T06:38:44.906Z,98262.78
2022-08-27T06:41:16.559Z,98261.28
2022-08-27T06:43:51.874Z,98263.09
2022-08-27T06:46:22.152Z,98265.84
2022-08-27T06:48:53.006Z,98266.88
2022-08-27T06:51:32.623Z,98257.31
2022-08-27T06:54:02.345Z,98265.31
2022-08-27T06:56:31.088Z,98264.66
2022-08-27T06:59:02.098Z,98260.91
2022-08-27T07:01:33.117Z,98260.31
2022-08-27T07:04:02.956Z,98265.22
2022-08-27T07:06:31.690Z,98266.50
2022-08-27T07:08:59.834Z,98270.97
2022-08-27T07:11:28.590Z,98277.09
2022-08-27T07:13:56.302Z,98273.69
2022-08-27T07:16:25.087Z,98275.00
2022-08-27T07:18:53.961Z,98281.34
2022-08-27T07:21:21.733Z,98274.41
2022-08-27T07:23:50.674Z,98272.34
2022-08-27T07:26:17.885Z,98274.41
2022-08-27T07:28:46.592Z,98274.69
2022-08-27T07:31:19.333Z,98280.00
2022-08-27T07:33:51.472Z,98280.16
2022-08-27T07:36:24.192Z,98284.59
2022-08-27T07:38:59.230Z,98284.41
2022-08-27T07:41:32.955Z,98288.59
2022-08-27T07:44:26.186Z,98286.00
2022-08-27T07:46:56.245Z,98299.25
2022-08-27T07:49:23.782Z,98298.28
2022-08-27T07:51:51.006Z,98305.56
2022-08-27T07:54:18.616Z,98306.19
2022-08-27T07:56:54.886Z,98305.91
2022-08-27T07:59:27.141Z,98310.72
2022-08-27T08:01:56.064Z,98307.25
2022-08-27T08:04:23.745Z,98313.38
2022-08-27T08:06:51.335Z,98305.03
2022-08-27T08:09:18.132Z,98310.31
2022-08-27T08:11:45.071Z,98303.22
2022-08-27T08:14:11.869Z,98303.34
2022-08-27T08:16:38.736Z,98308.38
2022-08-27T08:19:05.604Z,98304.69
2022-08-27T08:21:32.473Z,98306.13
2022-08-27T08:24:00.086Z,98308.63
2022-08-27T08:26:26.863Z,98309.09
2022-08-27T08:28:53.638Z,98304.94
2022-08-27T08:31:20.845Z,98314.00
2022-08-27T08:33:50.556Z,98312.47
2022-08-27T08:36:18.049Z,98310.56
2022-08-27T08:38:47.263Z,98308.13
2022-08-27T08:41:26.078Z,98316.09
2022-08-27T08:43:54.434Z,98307.75
2022-08-27T08:46:30.417Z,98308.19
2022-08-27T08:49:02.359Z,98309.00
2022-08-27T08:51:41.403Z,98310.03
2022-08-27T08:54:15.814Z,98315.50
2022-08-27T08:57:12.936Z,98323.00
2022-08-27T08:59:55.285Z,98324.16
2022-08-27T09:02:22.173Z,98324.69
2022-08-27T09:04:48.951Z,98329.00
2022-08-27T09:07:44.808Z,98329.00
2022-08-27T09:10:20.319Z,98327.66
2022-08-27T09:12:47.196Z,98331.09
2022-08-27T09:15:19.684Z,98338.72
2022-08-27T09:17:47.658Z,98334.69
2022-08-27T09:20:19.194Z,98335.66
2022-08-27T09:22:54.139Z,98336.28
2022-08-27T09:25:26.320Z,98335.41
2022-08-27T09:27:56.376Z,98340.81
2022-08-27T09:30:30.715Z,98326.31
2022-08-27T09:33:04.275Z,98331.56
2022-08-27T09:35:46.383Z,98329.44
2022-08-27T09:38:28.526Z,98327.97
2022-08-27T09:41:00.108Z,98324.22
2022-08-27T09:43:31.455Z,98323.06
2022-08-27T09:46:02.219Z,98321.41
2022-08-27T09:48:37.269Z,98324.41
2022-08-27T09:51:12.450Z,98324.34
2022-08-27T09:53:57.095Z,98314.41
2022-08-27T09:56:29.445Z,98322.72
2022-08-27T09:59:04.211Z,98320.53
2022-08-27T10:01:33.873Z,98327.44
2022-08-27T10:04:26.881Z,98307.84
2022-08-27T10:06:54.667Z,98311.72
2022-08-27T10:09:35.487Z,98312.28
2022-08-27T10:12:26.884Z,98321.59
2022-08-27T10:14:58.214Z,98304.28
2022-08-27T10:17:49.571Z,98312.72
2022-08-27T10:20:39.402Z,98313.84
2022-08-27T10:23:28.836Z,98314.84
2022-08-27T10:26:15.244Z,98308.25
2022-08-27T10:28:53.201Z,98318.75
2022-08-27T10:31:41.095Z,98325.88
2022-08-27T10:34:17.020Z,98323.47
2022-08-27T10:36:55.907Z,98320.94
2022-08-27T10:39:47.949Z,98318.94
2022-08-27T10:42:35.635Z,98322.72
2022-08-27T10:45:30.815Z,98317.19
2022-08-27T10:48:10.714Z,98318.03
2022-08-27T10:50:45.598Z,98313.31
2022-08-27T10:53:27.801Z,98312.31
2022-08-27T10:56:10.595Z,98312.03
2022-08-27T10:59:07.993Z,98314.28
2022-08-27T11:01:47.591Z,98318.59
2022-08-27T11:04:22.770Z,98323.00
2022-08-27T11:07:01.551Z,98318.59
2022-08-27T11:09:41.033Z,98318.47
2022-08-27T11:12:15.142Z,98320.72
2022-08-27T11:14:56.755Z,98317.63
2022-08-27T11:17:36.381Z,98317.59
2022-08-27T11:20:18.671Z,98319.41
2022-08-27T11:22:51.122Z,98308.41
2022-08-27T11:25:47.278Z,98318.31
2022-08-27T11:28:14.950Z,98314.81
2022-08-27T11:30:46.087Z,98308.69
2022-08-27T11:33:34.993Z,98310.94
2022-08-27T11:36:10.842Z,98307.94
2022-08-27T11:38:56.436Z,98309.03
2022-08-27T11:41:44.665Z,98310.53
2022-08-27T11:44:15.039Z,98313.28
2022-08-27T11:46:48.260Z,98303.88
2022-08-27T11:49:43.031Z,98309.06
2022-08-27T11:52:10.577Z,98306.09
2022-08-27T11:54:48.494Z,98306.03
2022-08-27T11:57:26.287Z,98299.53
2022-08-27T11:59:53.341Z,98301.53
2022-08-27T12:02:27.439Z,98302.34
2022-08-27T12:05:07.927Z,98301.84
2022-08-27T12:07:37.469Z,98311.50
2022-08-27T12:10:19.570Z,98306.09
2022-08-27T12:12:54.402Z,98308.59
2022-08-27T12:15:37.960Z,98309.06
2022-08-27T12:18:38.780Z,98306.13
2022-08-27T12:21:29.355Z,98305.00
2022-08-27T12:23:56.065Z,98299.00
2022-08-27T12:26:25.918Z,98304.94
2022-08-27T12:29:24.114Z,98300.53
2022-08-27T12:31:55.817Z,98308.66
2022-08-27T12:34:27.934Z,98308.34
2022-08-27T12:36:55.747Z,98303.22
2022-08-27T12:39:38.243Z,98299.19
2022-08-27T12:42:14.149Z,98301.22
2022-08-27T12:44:40.953Z,98301.53
2022-08-27T12:47:16.963Z,98298.31
2022-08-27T12:49:52.574Z,98297.84
2022-08-27T12:52:50.035Z,98299.53
2022-08-27T12:55:36.023Z,98294.50
2022-08-27T12:58:02.763Z,98296.59
2022-08-27T13:00:44.393Z,98295.09
2022-08-27T13:03:17.256Z,98295.13
2022-08-27T13:05:47.996Z,98294.16
2022-08-27T13:08:27.093Z,98291.66
2022-08-27T13:10:54.593Z,98293.38
2022-08-27T13:13:24.995Z,98286.75
2022-08-27T13:16:01.313Z,98281.31
2022-08-27T13:18:29.545Z,98280.22
2022-08-27T13:21:09.016Z,98271.91
2022-08-27T13:23:35.823Z,98272.50
2022-08-27T13:26:07.561Z,98266.41
2022-08-27T13:28:36.530Z,98267.69
2022-08-27T13:31:05.745Z,98258.69
2022-08-27T13:33:34.978Z,98257.59
2022-08-27T13:36:03.783Z,98263.22
2022-08-27T13:38:33.143Z,98257.22
2022-08-27T13:41:06.084Z,98256.75
2022-08-27T13:43:37.765Z,98255.75
2022-08-27T13:46:12.563Z,98257.03
2022-08-27T13:48:45.500Z,98264.34
2022-08-27T13:51:13.963Z,98255.56
2022-08-27T13:54:06.491Z,98250.91
2022-08-27T13:56:56.181Z,98250.88
2022-08-27T13:59:27.173Z,98250.94
2022-08-27T14:02:02.742Z,98245.13
2022-08-27T14:04:41.922Z,98253.75
2022-08-27T14:07:12.803Z,98243.41
2022-08-27T14:09:54.333Z,98249.94
2022-08-27T14:12:33.243Z,98252.00
2022-08-27T14:15:18.403Z,98250.75
2022-08-27T14:17:46.843Z,98254.34
2022-08-27T14:20:15.826Z,98246.47
2022-08-27T14:22:43.707Z,98248.34
2022-08-27T14:25:11.671Z,98247.94
2022-08-27T14:27:40.619Z,98252.06
2022-08-27T14:30:19.150Z,98248.06
2022-08-27T14:32:46.027Z,98249.53
2022-08-27T14:35:12.881Z,98254.97
2022-08-27T14:37:51.801Z,98258.72
2022-08-27T14:40:19.055Z,98260.53
2022-08-27T14:42:45.890Z,98252.09
2022-08-27T14:45:13.127Z,98251.81
2022-08-27T14:47:41.841Z,98258.38
2022-08-27T14:50:11.112Z,98251.13
2022-08-27T14:52:39.980Z,98251.13
2022-08-27T14:55:10.823Z,98255.22
2022-08-27T14:57:38.447Z,98252.69
2022-08-27T15:00:07.995Z,98248.06
2022-08-27T15:02:35.419Z,98247.63
2022-08-27T15:05:03.424Z,98252.59
2022-08-27T15:07:38.957Z,98252.78
2022-08-27T15:10:09.166Z,98255.28
2022-08-27T15:12:36.961Z,98259.84
2022-08-27T15:15:05.741Z,98251.44
2022-08-27T15:17:35.154Z,98259.56
2022-08-27T15:20:18.949Z,98251.53
2022-08-27T15:22:50.852Z,98254.56
2022-08-27T15:25:19.175Z,98254.31
2022-08-27T15:27:46.001Z,98250.34
2022-08-27T15:30:15.113Z,98249.69
2022-08-27T15:32:47.930Z,98250.34
2022-08-27T15:35:18.503Z,98248.72
2022-08-27T15:37:46.418Z,98250.56
2022-08-27T15:40:15.559Z,98248.94
2022-08-27T15:42:42.472Z,98246.38
2022-08-27T15:45:11.408Z,98236.25
2022-08-27T15:47:38.319Z,98231.81
2022-08-27T15:50:06.234Z,98242.09
2022-08-27T15:52:40.607Z,98238.94
2022-08-27T15:55:15.324Z,98242.91
2022-08-27T15:57:42.147Z,98242.94
2022-08-27T16:00:09.535Z,98245.75
2022-08-27T16:02:36.534Z,98249.19
2022-08-27T16:05:03.792Z,98242.59
2022-08-27T16:07:30.659Z,98242.63
2022-08-27T16:10:00.235Z,98235.09
2022-08-27T16:12:27.745Z,98244.25
2022-08-27T16:14:56.052Z,98245.38
2022-08-27T16:17:23.931Z,98243.09
2022-08-27T16:19:50.762Z,98237.06
2022-08-27T16:22:17.566Z,98237.06
2022-08-27T16:24:44.727Z,98238.22
2022-08-27T16:27:11.675Z,98238.81
2022-08-27T16:29:38.647Z,98238.06
2022-08-27T16:32:08.652Z,98231.53
2022-08-27T16:34:35.526Z,98240.53
2022-08-27T16:37:02.250Z,98233.94
2022-08-27T16:39:33.056Z,98236.84
2022-08-27T16:42:01.710Z,98237.97
2022-08-27T16:44:28.578Z,98230.97
2022-08-27T16:46:55.581Z,98223.50
2022-08-27T16:49:41.239Z,98226.97
2022-08-27T16:52:08.103Z,98234.53
2022-08-27T16:54:35.709Z,98235.13
2022-08-27T16:57:02.684Z,98222.94
2022-08-27T16:59:29.510Z,98221.34
2022-08-27T17:01:56.999Z,98227.81
2022-08-27T17:04:30.492Z,98232.09
2022-08-27T17:07:02.281Z,98246.50
2022-08-27T17:09:30.446Z,98239.78
2022-08-27T17:11:58.502Z,98240.75
2022-08-27T17:14:26.834Z,98242.44
2022-08-27T17:16:54.074Z,98247.38
2022-08-27T17:19:22.324Z,98250.09
2022-08-27T17:21:50.061Z,98244.63
2022-08-27T17:24:17.399Z,98249.28
2022-08-27T17:26:44.294Z,98249.56
2022-08-27T17:29:11.047Z,98250.41
2022-08-27T17:31:40.592Z,98254.19
2022-08-27T17:34:15.281Z,98261.59
2022-08-27T17:36:43.168Z,98260.06
2022-08-27T17:39:12.627Z,98259.59
2022-08-27T17:41:42.330Z,98253.94
2022-08-27T17:44:31.711Z,98256.03
2022-08-27T17:47:00.922Z,98253.47
2022-08-27T17:49:27.964Z,98251.16
2022-08-27T17:52:15.296Z,98254.53
2022-08-27T17:54:45.767Z,98256.16
2022-08-27T17:57:19.066Z,98273.66
2022-08-27T17:59:46.873Z,98265.69
2022-08-27T18:02:20.645Z,98271.81
2022-08-27T18:04:47.632Z,98276.09
2022-08-27T18:07:15.284Z,98285.88
2022-08-27T18:09:42.536Z,98285.91
2022-08-27T18:12:12.155Z,98288.16
2022-08-27T18:14:38.982Z,98290.16
2022-08-27T18:17:05.898Z,98286.94
2022-08-27T18:19:32.743Z,98298.00
2022-08-27T18:21:59.539Z,98297.28
2022-08-27T18:24:27.389Z,98306.88
2022-08-27T18:26:54.210Z,98296.34
2022-08-27T18:29:21.058Z,98301.25
2022-08-27T18:31:47.851Z,98307.13
2022-08-27T18:34:20.086Z,98311.81
2022-08-27T18:36:47.811Z,98319.91
2022-08-27T18:39:14.832Z,98321.38
2022-08-27T18:41:42.046Z,98324.09
2022-08-27T18:44:17.155Z,98324.31
2022-08-27T18:46:45.043Z,98328.22
2022-08-27T18:49:12.189Z,98331.13
2022-08-27T18:51:42.715Z,98326.34
2022-08-27T18:54:09.732Z,98332.25
2022-08-27T18:56:36.662Z,98337.03
2022-08-27T18:59:04.363Z,98338.53
2022-08-27T19:01:31.871Z,98340.47
2022-08-27T19:03:58.982Z,98342.94
2022-08-27T19:06:25.821Z,98351.50
2022-08-27T19:08:52.717Z,98346.84
2022-08-27T19:11:19.500Z,98355.31
2022-08-27T19:13:50.733Z,98351.34
2022-08-27T19:16:42.452Z,98357.97
2022-08-27T19:19:14.338Z,98359.75
2022-08-27T19:21:41.888Z,98364.44
2022-08-27T19:24:09.836Z,98362.06
2022-08-27T19:26:37.120Z,98366.41
2022-08-27T19:29:04.301Z,98375.38
2022-08-27T19:31:33.505Z,98379.38
2022-08-27T19:34:00.398Z,98385.16
2022-08-27T19:36:28.185Z,98385.72
2022-08-27T19:38:55.359Z,98388.75
2022-08-27T19:41:26.060Z,98391.28
2022-08-27T19:43:55.279Z,98390.50
2022-08-27T19:46:24.032Z,98397.41
2022-08-27T19:48:51.497Z,98400.22
2022-08-27T19:51:18.926Z,98395.28
2022-08-27T19:53:45.701Z,98393.13
2022-08-27T19:56:13.891Z,98389.84
2022-08-27T19:58:42.650Z,98395.06
2022-08-27T20:01:09.504Z,98393.97
2022-08-27T20:03:36.473Z,98398.16
2022-08-27T20:06:03.842Z,98394.72
2022-08-27T20:08:30.885Z,98394.50
2022-08-27T20:10:57.902Z,98395.44
2022-08-27T20:13:24.851Z,98398.56
2022-08-27T20:15:52.433Z,98400.28
2022-08-27T20:18:20.120Z,98404.25
2022-08-27T20:20:47.112Z,98400.19
2022-08-27T20:23:13.956Z,98409.44
2022-08-27T20:25:42.188Z,98404.03
2022-08-27T20:28:35.489Z,98399.91
2022-08-27T20:30:59.342Z,98416.50
2022-08-27T20:33:27.130Z,98413.03
2022-08-27T20:35:56.627Z,98409.16
2022-08-27T20:38:23.490Z,98411.97
2022-08-27T20:40:50.661Z,98405.53
2022-08-27T20:43:18.768Z,98413.69
2022-08-27T20:45:45.591Z,98414.97
2022-08-27T20:48:13.099Z,98419.72
2022-08-27T20:50:40.051Z,98416.34
2022-08-27T20:53:07.036Z,98421.63
2022-08-27T20:55:33.769Z,98418.84
2022-08-27T20:58:19.073Z,98418.84
2022-08-27T21:00:46.112Z,98423.66
2022-08-27T21:03:14.313Z,98421.38
2022-08-27T21:05:43.578Z,98421.81
2022-08-27T21:08:11.122Z,98420.53
2022-08-27T21:10:49.137Z,98423.53
2022-08-27T21:13:16.490Z,98420.28
2022-08-27T21:15:43.348Z,98422.19
2022-08-27T21:18:11.010Z,98418.97
2022-08-27T21:20:38.135Z,98420.72
2022-08-27T21:23:05.155Z,98426.84
2022-08-27T21:25:31.911Z,98415.34
2022-08-27T21:28:00.336Z,98421.53
2022-08-27T21:30:27.442Z,98421.66
2022-08-27T21:32:57.674Z,98428.13
2022-08-27T21:35:28.941Z,98427.03
2022-08-27T21:37:57.946Z,98428.56
2022-08-27T21:40:28.040Z,98426.09
2022-08-27T21:42:56.416Z,98427.41
2022-08-27T21:45:23.249Z,98426.13
2022-08-27T21:47:51.779Z,98424.88
2022-08-27T21:50:20.158Z,98420.28
2022-08-27T21:52:47.009Z,98422.97
2022-08-27T21:55:14.389Z,98421.81
2022-08-27T21:57:41.188Z,98423.41
2022-08-27T22:00:36.777Z,98416.13
2022-08-27T22:03:03.953Z,98423.00
2022-08-27T22:05:39.354Z,98421.38
2022-08-27T22:08:06.507Z,98420.00
2022-08-27T22:10:33.841Z,98417.97
2022-08-27T22:13:00.715Z,98414.31
2022-08-27T22:15:27.544Z,98417.66
2022-08-27T22:17:54.395Z,98418.41
2022-08-27T22:20:21.970Z,98412.31
2022-08-27T22:22:48.814Z,98419.72
2022-08-27T22:25:16.647Z,98406.19
2022-08-27T22:27:43.621Z,98412.13
2022-08-27T22:30:11.764Z,98412.00
2022-08-27T22:32:40.387Z,98409.22
2022-08-27T22:35:09.126Z,98405.53
2022-08-27T22:37:36.393Z,98407.16
2022-08-27T22:40:05.894Z,98407.47
2022-08-27T22:42:32.777Z,98407.41
2022-08-27T22:45:00.480Z,98408.47
2022-08-27T22:47:27.723Z,98417.72
2022-08-27T22:49:54.523Z,98420.13
2022-08-27T22:52:28.064Z,98422.69
2022-08-27T22:54:55.172Z,98421.16
2022-08-27T22:57:22.239Z,98420.41
2022-08-27T22:59:49.011Z,98410.81
2022-08-27T23:02:16.093Z,98413.63
2022-08-27T23:04:54.878Z,98402.97
2022-08-27T23:07:22.369Z,98405.78
2022-08-27T23:09:49.123Z,98402.88
2022-08-27T23:12:15.987Z,98403.75
2022-08-27T23:14:42.755Z,98412.88
2022-08-27T23:17:09.476Z,98411.25
2022-08-27T23:19:36.266Z,98412.44
2022-08-27T23:22:04.234Z,98407.25
2022-08-27T23:24:54.955Z,98411.13
2022-08-27T23:27:30.698Z,98408.13
2022-08-27T23:29:59.202Z,98409.00
2022-08-27T23:32:26.961Z,98410.59
2022-08-27T23:34:54.278Z,98412.56
2022-08-27T23:37:22.048Z,98414.25
2022-08-27T23:39:48.824Z,98411.56
2022-08-27T23:42:18.486Z,98420.63
2022-08-27T23:44:46.857Z,98414.59
2022-08-27T23:47:13.792Z,98412.31
2022-08-27T23:49:43.216Z,98417.03
2022-08-27T23:52:11.715Z,98417.91
2022-08-27T23:54:38.497Z,98414.91
2022-08-27T23:57:05.808Z,98412.22
2022-08-27T23:59:32.664Z,98412.22
